Time;durP1;ratioP1;P1;durP2;ratioP2;P2;SDS_P1;SDS_P2;PMS_P1;PMS_P2;Temp;Humidity;BMP_temperature;BMP_pressure;BME280_temperature;BME280_humidity;BME280_pressure;Samples;Min_cycle;Max_cycle;Signal;HPM_P1;HPM_P2
2023/07/05 00:00:09;;;;;;;3.03;2.03;;;;;;;15.72;96.67;99870.91;5013709;28;20272;-59
2023/07/05 00:02:39;;;;;;;6.30;2.30;;;;;;;15.75;96.90;99870.78;5003783;28;20283;-58
2023/07/05 00:05:11;;;;;;;3.63;2.17;;;;;;;15.58;95.12;99845.16;5013623;28;20456;-57
2023/07/05 00:07:42;;;;;;;3.70;1.90;;;;;;;15.61;95.39;99868.69;5003587;28;20287;-58
2023/07/05 00:10:13;;;;;;;3.67;2.10;;;;;;;15.56;96.21;99861.94;5013570;28;20770;-57
2023/07/05 00:12:46;;;;;;;4.37;2.23;;;;;;;15.60;96.80;99855.59;5004001;28;20320;-58
2023/07/05 00:15:18;;;;;;;4.83;2.30;;;;;;;15.73;96.31;99851.56;5013342;28;20896;-58
2023/07/05 00:17:48;;;;;;;2.87;2.00;;;;;;;15.84;94.89;99854.56;5004618;28;20807;-58
2023/07/05 00:20:23;;;;;;;8.37;2.77;;;;;;;15.85;94.42;99855.41;5013857;28;20685;-57
2023/07/05 00:22:54;;;;;;;3.93;2.30;;;;;;;15.84;95.13;99844.00;5003973;28;20336;-58
2023/07/05 00:25:25;;;;;;;4.10;2.50;;;;;;;15.83;92.51;99847.59;5013708;28;20330;-58
2023/07/05 00:27:55;;;;;;;4.03;2.30;;;;;;;15.80;93.80;99847.72;5003163;28;20288;-58
2023/07/05 00:30:26;;;;;;;7.10;2.70;;;;;;;15.79;94.36;99846.00;5012271;28;20284;-58
2023/07/05 00:32:58;;;;;;;9.47;2.80;;;;;;;15.72;95.53;99849.81;5003684;28;20454;-57
2023/07/05 00:35:31;;;;;;;7.93;3.00;;;;;;;15.82;97.04;99851.13;5012874;28;20357;-58
2023/07/05 00:38:02;;;;;;;9.20;2.90;;;;;;;15.86;95.55;99842.16;5002511;28;20287;-58
2023/07/05 00:40:37;;;;;;;3.70;2.47;;;;;;;15.95;94.37;99841.75;5012146;28;20434;-58
2023/07/05 00:43:10;;;;;;;7.03;2.90;;;;;;;15.96;92.91;99846.09;5002363;28;20749;-57
2023/07/05 00:46:02;;;;;;;9.60;3.07;;;;;;;15.96;94.63;99842.63;5002277;28;20291;-58
2023/07/05 00:48:39;;;;;;;9.00;2.70;;;;;;;15.95;93.76;99841.75;5009058;28;20297;-58
2023/07/05 00:51:38;;;;;;;4.50;2.17;;;;;;;16.05;93.24;99841.31;5002355;28;20368;-58
2023/07/05 00:54:19;;;;;;;7.33;2.97;;;;;;;16.16;92.54;99839.06;4979622;28;20781;-58
2023/07/05 00:56:57;;;;;;;8.37;3.03;;;;;;;16.32;91.76;99845.31;5003724;28;20286;-58
2023/07/05 00:59:44;;;;;;;3.83;2.50;;;;;;;16.21;90.17;99836.22;5010602;28;20381;-58
2023/07/05 01:02:16;;;;;;;5.57;2.40;;;;;;;16.16;90.71;99841.69;5001812;28;21226;-58
2023/07/05 01:04:48;;;;;;;3.83;2.10;;;;;;;16.23;91.24;99832.59;5002775;28;20718;-59
2023/07/05 01:07:20;;;;;;;3.17;2.07;;;;;;;16.43;90.75;99836.06;5022918;28;20318;-58
2023/07/05 01:09:56;;;;;;;3.47;2.30;;;;;;;16.45;89.34;99818.38;5001621;28;20311;-59
2023/07/05 01:12:33;;;;;;;7.07;2.77;;;;;;;16.39;89.04;99788.72;5011616;28;20782;-57
2023/07/05 01:15:11;;;;;;;4.93;2.40;;;;;;;16.79;88.88;99822.91;5001934;28;20311;-58
2023/07/05 01:17:50;;;;;;;4.87;2.43;;;;;;;17.00;88.04;99816.59;5002920;28;20996;-59
2023/07/05 01:20:36;;;;;;;5.57;2.57;;;;;;;17.32;88.83;99815.88;5011786;28;20290;-58
2023/07/05 01:23:36;;;;;;;5.23;2.60;;;;;;;17.24;86.83;99811.84;5001113;28;20280;-59
2023/07/05 01:26:42;;;;;;;4.40;2.47;;;;;;;16.72;87.04;99764.28;5001075;28;20326;-58
2023/07/05 01:29:39;;;;;;;3.63;2.23;;;;;;;17.05;87.32;99797.88;4967288;28;20653;-58
2023/07/05 01:32:18;;;;;;;3.83;2.70;;;;;;;17.12;88.87;99793.97;5001645;28;20371;-58
2023/07/05 01:34:52;;;;;;;3.03;1.95;;;;;;;17.17;87.35;99797.25;5002550;28;20323;-59
2023/07/05 01:37:30;;;;;;;3.97;2.00;;;;;;;17.23;85.79;99790.81;5011753;28;20049;-58
2023/07/05 01:40:00;;;;;;;4.13;2.20;;;;;;;17.40;87.25;99792.59;5001775;28;20812;-58
2023/07/05 01:42:34;;;;;;;5.90;2.70;;;;;;;17.57;85.23;99779.34;5011215;28;20271;-58
2023/07/05 01:45:05;;;;;;;4.77;2.30;;;;;;;17.77;84.73;99777.41;5000143;28;20296;-57
2023/07/05 01:47:43;;;;;;;3.43;2.20;;;;;;;17.78;81.57;99781.78;5010092;28;20292;-58
2023/07/05 01:50:21;;;;;;;3.87;2.07;;;;;;;17.83;82.44;99775.31;4999319;28;20299;-58
2023/07/05 01:53:00;;;;;;;4.13;2.00;;;;;;;17.85;82.84;99777.91;4999743;28;20284;-59
2023/07/05 01:55:38;;;;;;;5.30;1.98;;;;;;;17.74;82.63;99737.94;5010170;28;20287;-60
2023/07/05 01:58:16;;;;;;;5.33;2.00;;;;;;;17.78;82.55;99750.91;5000729;28;20075;-58
2023/07/05 02:00:50;;;;;;;2.60;1.70;;;;;;;17.95;79.06;99757.94;5001234;28;20395;-58
2023/07/05 02:03:25;;;;;;;2.70;1.97;;;;;;;17.92;79.77;99779.25;5010655;28;20290;-58
2023/07/05 02:05:55;;;;;;;2.47;1.53;;;;;;;17.76;79.63;99770.41;5001635;28;20288;-58
2023/07/05 02:08:28;;;;;;;4.50;2.07;;;;;;;17.83;80.72;99759.47;5010607;28;20403;-58
2023/07/05 02:10:59;;;;;;;8.13;2.10;;;;;;;18.09;80.53;99754.53;5000511;28;20312;-57
2023/07/05 02:13:31;;;;;;;3.57;1.97;;;;;;;18.35;81.26;99760.19;5010546;28;20353;-57
2023/07/05 02:16:04;;;;;;;5.60;1.83;;;;;;;18.36;81.27;99762.72;5000100;28;21074;-58
2023/07/05 02:18:37;;;;;;;6.53;1.63;;;;;;;18.40;79.44;99758.97;5010393;28;20923;-55
2023/07/05 02:21:11;;;;;;;2.50;1.87;;;;;;;18.22;78.87;99754.69;5000228;28;20288;-58
2023/07/05 02:23:41;;;;;;;1.90;1.33;;;;;;;17.79;80.98;99662.75;5000892;28;20295;-58
2023/07/05 02:26:15;;;;;;;5.30;1.93;;;;;;;18.49;79.22;99753.13;5010531;28;20375;-58
2023/07/05 02:28:46;;;;;;;3.97;1.50;;;;;;;18.33;77.65;99741.75;5001492;28;20291;-55
2023/07/05 02:31:18;;;;;;;4.43;1.27;;;;;;;18.37;76.75;99743.28;5010521;28;20312;-56
2023/07/05 02:33:51;;;;;;;3.73;1.43;;;;;;;18.53;80.74;99736.16;5001181;28;20288;-56
2023/07/05 02:36:22;;;;;;;2.57;1.50;;;;;;;18.53;77.27;99737.94;5010336;28;20291;-56
2023/07/05 02:38:58;;;;;;;1.93;1.30;;;;;;;18.40;79.36;99737.81;5001294;28;20292;-57
2023/07/05 02:41:31;;;;;;;3.00;1.60;;;;;;;18.61;79.58;99729.56;5009473;28;20296;-55
2023/07/05 02:44:01;;;;;;;1.63;1.00;;;;;;;18.71;80.04;99725.44;4999762;28;20291;-56
2023/07/05 02:46:39;;;;;;;2.13;1.23;;;;;;;18.55;76.26;99733.44;5009530;28;20299;-55
2023/07/05 02:49:12;;;;;;;5.60;1.20;;;;;;;18.39;74.58;99714.91;4999874;28;20295;-57
2023/07/05 02:51:43;;;;;;;2.47;1.13;;;;;;;18.51;77.55;99724.78;5000143;28;20053;-55
2023/07/05 02:54:14;;;;;;;1.03;0.93;;;;;;;18.64;76.71;99718.78;5009841;28;20280;-55
2023/07/05 02:56:44;;;;;;;1.20;1.07;;;;;;;18.71;75.85;99714.84;5000516;28;20302;-56
2023/07/05 02:59:15;;;;;;;2.17;1.30;;;;;;;18.79;76.06;99707.34;5010366;28;20379;-56
2023/07/05 03:01:50;;;;;;;1.80;0.90;;;;;;;18.71;76.32;99705.13;5000220;28;20291;-55
2023/07/05 03:04:23;;;;;;;2.23;1.03;;;;;;;18.49;77.64;99694.94;5010106;28;20291;-56
2023/07/05 03:06:54;;;;;;;3.43;0.90;;;;;;;18.51;76.00;99698.34;5000151;28;20295;-56
2023/07/05 03:09:25;;;;;;;2.50;0.70;;;;;;;18.63;76.58;99702.06;5007214;28;21857;-55
2023/07/05 03:11:56;;;;;;;2.20;0.97;;;;;;;18.75;75.02;99695.22;5000571;28;20980;-56
2023/07/05 03:14:26;;;;;;;0.97;0.80;;;;;;;18.82;73.69;99704.53;5010091;28;20301;-56
2023/07/05 03:16:57;;;;;;;1.07;0.90;;;;;;;18.87;73.76;99704.22;4999957;28;20275;-58
2023/07/05 03:19:29;;;;;;;1.07;0.90;;;;;;;18.94;76.49;99700.28;5009707;28;20280;-57
2023/07/05 03:22:00;;;;;;;1.10;0.90;;;;;;;18.73;76.56;99660.88;5001142;28;20299;-57
2023/07/05 03:24:31;;;;;;;1.47;0.70;;;;;;;18.91;75.24;99703.97;5013457;28;20357;-57
2023/07/05 03:27:01;;;;;;;1.10;0.90;;;;;;;18.72;76.44;99690.09;5003686;28;20295;-56
2023/07/05 03:29:32;;;;;;;1.70;0.97;;;;;;;18.73;75.91;99691.81;5014552;28;20327;-56
2023/07/05 03:32:03;;;;;;;3.00;0.80;;;;;;;18.88;76.99;99700.66;5003235;28;20311;-56
2023/07/05 03:34:36;;;;;;;1.93;1.00;;;;;;;19.06;75.55;99680.16;5014135;28;20338;-56
2023/07/05 03:37:07;;;;;;;2.60;0.90;;;;;;;19.13;74.81;99684.16;5003548;28;20800;-57
2023/07/05 03:39:37;;;;;;;2.17;0.70;;;;;;;19.01;75.47;99682.25;5009077;28;20288;-57
2023/07/05 03:42:10;;;;;;;1.10;1.00;;;;;;;18.73;74.98;99681.22;5013516;28;20387;-56
2023/07/05 03:44:41;;;;;;;3.00;0.70;;;;;;;18.69;74.94;99684.97;5004693;28;20298;-57
2023/07/05 03:47:16;;;;;;;1.80;0.70;;;;;;;18.32;75.80;99623.63;5014160;28;20296;-58
2023/07/05 03:49:49;;;;;;;3.20;1.00;;;;;;;18.77;79.04;99672.19;5004475;28;20562;-56
2023/07/05 03:52:19;;;;;;;1.33;0.90;;;;;;;18.90;74.61;99673.16;5013650;28;20287;-56
2023/07/05 03:54:53;;;;;;;1.83;0.93;;;;;;;18.63;75.41;99670.31;5004301;28;20298;-56
2023/07/05 03:57:25;;;;;;;2.87;0.90;;;;;;;18.57;75.93;99664.53;5013314;28;20349;-55
2023/07/05 03:59:56;;;;;;;3.03;0.70;;;;;;;18.69;76.76;99674.38;5004509;28;20660;-56
2023/07/05 04:02:31;;;;;;;3.37;0.70;;;;;;;18.76;76.50;99670.47;5013773;28;20403;-57
2023/07/05 04:05:04;;;;;;;2.27;0.80;;;;;;;18.78;75.05;99658.00;5003122;28;20642;-55
2023/07/05 04:07:34;;;;;;;3.40;0.80;;;;;;;18.79;74.65;99658.84;5013315;28;20353;-57
2023/07/05 04:10:06;;;;;;;0.83;0.70;;;;;;;18.80;73.71;99653.47;5003332;28;20371;-56
2023/07/05 04:12:37;;;;;;;1.90;0.60;;;;;;;18.98;74.80;99642.72;5011636;28;20316;-55
2023/07/05 04:15:11;;;;;;;1.50;0.70;;;;;;;19.13;74.39;99644.44;5012942;28;20284;-56
2023/07/05 04:17:42;;;;;;;0.63;0.63;;;;;;;19.03;74.05;99635.34;5004117;28;20287;-57
2023/07/05 04:20:19;;;;;;;2.70;0.80;;;;;;;18.81;76.94;99631.34;5011256;28;20311;-56
2023/07/05 04:22:53;;;;;;;2.60;0.77;;;;;;;18.73;76.13;99634.44;5003464;28;20386;-56
2023/07/05 04:25:32;;;;;;;4.03;0.80;;;;;;;18.72;76.75;99634.50;5013225;28;20307;-56
2023/07/05 04:28:23;;;;;;;3.43;0.70;;;;;;;18.69;75.72;99637.34;5002529;28;20300;-56
2023/07/05 04:31:12;;;;;;;1.70;0.60;;;;;;;18.54;77.80;99641.75;4978426;28;20376;-57
2023/07/05 04:33:58;;;;;;;4.63;1.05;;;;;;;18.62;78.01;99649.22;5002140;28;20299;-56
2023/07/05 04:36:41;;;;;;;2.60;0.60;;;;;;;18.65;76.50;99647.28;5010230;28;20052;-57
2023/07/05 04:39:20;;;;;;;2.60;0.70;;;;;;;18.56;75.76;99646.97;5003488;28;20295;-56
2023/07/05 04:41:58;;;;;;;0.80;0.60;;;;;;;18.40;75.46;99639.94;5003312;28;20287;-56
2023/07/05 04:44:33;;;;;;;1.23;0.50;;;;;;;18.48;77.59;99650.91;5013201;28;20806;-57
2023/07/05 04:47:09;;;;;;;2.60;0.80;;;;;;;18.30;79.05;99641.41;5002320;28;20472;-56
2023/07/05 04:49:44;;;;;;;2.47;0.67;;;;;;;18.07;78.81;99640.97;5002971;28;20421;-57
2023/07/05 04:52:18;;;;;;;3.37;1.20;;;;;;;18.07;80.01;99648.00;5011061;28;20310;-56
2023/07/05 04:54:51;;;;;;;6.00;0.80;;;;;;;18.05;79.59;99649.91;5002744;28;20375;-57
2023/07/05 04:57:26;;;;;;;1.20;0.80;;;;;;;17.65;80.96;99581.63;5011806;28;20284;-57
2023/07/05 05:00:09;;;;;;;1.50;0.73;;;;;;;18.06;77.88;99648.97;5002097;28;20384;-56
2023/07/05 05:02:45;;;;;;;1.48;0.73;;;;;;;18.08;79.32;99642.66;5003017;28;20298;-56
2023/07/05 05:05:21;;;;;;;;;;;;;;;18.12;79.37;99659.16;5013597;28;20059;-57
2023/07/05 05:08:01;;;;;;;1.37;0.70;;;;;;;17.98;80.19;99649.41;5003388;28;19925;-57
2023/07/05 05:10:39;;;;;;;2.57;1.10;;;;;;;17.90;81.02;99643.72;5012256;28;20342;-56
2023/07/05 05:13:22;;;;;;;1.17;0.80;;;;;;;17.69;81.46;99651.84;5002832;28;20631;-56
2023/07/05 05:16:01;;;;;;;2.13;0.83;;;;;;;17.53;82.30;99651.00;5002702;28;20295;-56
2023/07/05 05:18:49;;;;;;;1.37;0.60;;;;;;;17.40;82.00;99634.13;5011221;28;20288;-56
2023/07/05 05:21:26;;;;;;;0.70;0.70;;;;;;;17.33;81.95;99627.47;5012417;28;20378;-56
2023/07/05 05:24:09;;;;;;;3.47;0.70;;;;;;;17.39;83.04;99627.13;5003097;28;20284;-57
2023/07/05 05:26:45;;;;;;;2.63;0.60;;;;;;;17.42;81.97;99621.66;5002662;28;20287;-56
2023/07/05 05:29:27;;;;;;;0.60;0.43;;;;;;;17.35;83.08;99637.00;5010451;28;20280;-57
2023/07/05 05:32:06;;;;;;;1.13;0.50;;;;;;;17.00;82.81;99586.13;5000878;28;20311;-56
2023/07/05 05:34:41;;;;;;;2.53;0.80;;;;;;;17.40;83.71;99634.97;5004896;28;20834;-56
2023/07/05 05:37:19;;;;;;;2.70;0.80;;;;;;;17.44;82.67;99633.00;5011548;28;20351;-57
2023/07/05 05:40:15;;;;;;;3.63;1.07;;;;;;;17.61;82.62;99632.09;5001995;28;20316;-56
2023/07/05 05:42:59;;;;;;;5.28;0.90;;;;;;;18.23;80.73;99629.50;5002036;28;20288;-56
2023/07/05 05:45:38;;;;;;;1.33;0.60;;;;;;;18.31;77.12;99643.09;5011325;28;20053;-57
2023/07/05 05:48:14;;;;;;;2.07;0.50;;;;;;;18.21;77.39;99641.94;5001521;28;20287;-56
2023/07/05 05:50:55;;;;;;;2.57;0.90;;;;;;;18.04;78.21;99651.69;5002596;28;20293;-58
2023/07/05 05:53:37;;;;;;;4.40;0.70;;;;;;;17.52;78.56;99617.56;5011897;28;20741;-56
2023/07/05 05:56:19;;;;;;;4.20;0.50;;;;;;;17.59;80.27;99649.81;5000129;28;20304;-58
2023/07/05 05:59:01;;;;;;;5.53;0.83;;;;;;;17.46;79.71;99649.63;5002073;28;20744;-57
2023/07/05 06:01:44;;;;;;;3.43;0.60;;;;;;;17.14;81.40;99643.44;5007513;28;20303;-58
2023/07/05 06:04:24;;;;;;;8.07;0.80;;;;;;;17.09;81.98;99635.75;5011980;28;20291;-56
2023/07/05 06:07:00;;;;;;;4.93;0.70;;;;;;;16.97;83.31;99631.13;5001720;28;20060;-57
2023/07/05 06:09:41;;;;;;;1.93;0.70;;;;;;;17.29;82.11;99626.75;5011365;28;20346;-57
2023/07/05 06:12:21;;;;;;;5.10;0.70;;;;;;;17.68;81.12;99629.00;5001000;28;20383;-57
2023/07/05 06:14:53;;;;;;;3.17;0.57;;;;;;;17.68;79.00;99618.44;5001974;28;20320;-56
2023/07/05 06:17:32;;;;;;;4.63;0.70;;;;;;;17.67;79.75;99606.19;5011335;28;20288;-57
2023/07/05 06:20:14;;;;;;;1.53;0.77;;;;;;;17.88;78.85;99609.41;5000607;28;20299;-56
2023/07/05 06:22:57;;;;;;;11.77;1.30;;;;;;;17.89;80.25;99615.56;5001405;28;20291;-57
2023/07/05 06:25:34;;;;;;;4.93;0.93;;;;;;;18.06;80.28;99596.94;5010746;28;20303;-56
2023/07/05 06:28:08;;;;;;;2.03;0.90;;;;;;;18.06;78.22;99606.66;5000108;28;20272;-56
2023/07/05 06:30:43;;;;;;;9.57;2.40;;;;;;;18.00;79.63;99602.59;5000849;28;20311;-57
2023/07/05 06:33:21;;;;;;;7.47;1.77;;;;;;;18.11;77.97;99605.44;5010681;28;20292;-56
2023/07/05 06:36:00;;;;;;;1.73;0.97;;;;;;;17.95;78.62;99609.94;5002068;28;20771;-57
2023/07/05 06:38:37;;;;;;;6.33;1.20;;;;;;;17.53;78.88;99577.03;5010440;28;20283;-57
2023/07/05 06:41:15;;;;;;;1.80;0.67;;;;;;;17.52;78.66;99607.00;5000952;28;20295;-59
2023/07/05 06:43:56;;;;;;;1.73;0.70;;;;;;;16.83;82.52;99599.34;5001316;28;20288;-58
2023/07/05 06:46:31;;;;;;;4.83;0.97;;;;;;;16.64;83.82;99597.63;5009588;28;21060;-59
2023/07/05 06:49:04;;;;;;;2.97;0.70;;;;;;;16.60;84.17;99585.56;5000284;28;20292;-58
2023/07/05 06:51:37;;;;;;;0.80;0.70;;;;;;;16.78;84.37;99587.25;5010697;28;20283;-59
2023/07/05 06:54:21;;;;;;;2.10;0.70;;;;;;;16.94;83.31;99594.34;4999878;28;20294;-59
2023/07/05 06:57:03;;;;;;;2.97;1.00;;;;;;;16.65;84.20;99591.44;5000819;28;20256;-58
2023/07/05 06:59:50;;;;;;;4.03;0.83;;;;;;;16.55;85.35;99603.41;5010899;28;20291;-58
2023/07/05 07:02:26;;;;;;;2.70;0.80;;;;;;;16.41;84.86;99590.06;5009554;28;20774;-58
2023/07/05 07:05:11;;;;;;;1.17;0.90;;;;;;;16.20;86.31;99592.00;5001011;28;20363;-57
2023/07/05 07:07:58;;;;;;;3.53;0.70;;;;;;;15.83;86.85;99594.69;5012905;28;21295;-58
2023/07/05 07:10:46;;;;;;;1.95;0.90;;;;;;;16.01;86.58;99581.53;5010221;28;20322;-58
2023/07/05 07:13:42;;;;;;;1.17;0.83;;;;;;;15.22;87.31;99471.22;5008362;28;20157;-57
2023/07/05 07:16:21;;;;;;;5.33;1.53;;;;;;;15.89;86.87;99578.56;5009925;28;20287;-57
2023/07/05 07:18:55;;;;;;;4.40;1.00;;;;;;;16.01;86.92;99581.53;5000674;28;20283;-57
2023/07/05 07:21:28;;;;;;;5.40;0.93;;;;;;;16.10;85.85;99583.69;5010521;28;20291;-57
2023/07/05 07:23:59;;;;;;;1.57;1.00;;;;;;;15.85;87.05;99571.75;5001488;28;20285;-57
2023/07/05 07:26:32;;;;;;;3.23;1.23;;;;;;;15.75;88.85;99586.31;5010433;28;20323;-57
2023/07/05 07:29:08;;;;;;;3.43;1.00;;;;;;;15.62;89.27;99579.88;4998846;28;20348;-57
2023/07/05 07:31:44;;;;;;;6.60;0.93;;;;;;;15.67;89.58;99591.03;4999458;28;20328;-57
2023/07/05 07:34:16;;;;;;;1.53;0.90;;;;;;;15.53;88.83;99587.28;5009875;28;20322;-57
2023/07/05 07:36:47;;;;;;;8.23;0.90;;;;;;;15.43;88.04;99596.56;5000586;28;20288;-59
2023/07/05 07:39:18;;;;;;;3.40;0.80;;;;;;;15.57;88.70;99587.13;5010349;28;20794;-58
2023/07/05 07:41:49;;;;;;;0.80;0.70;;;;;;;15.36;88.22;99589.88;5001074;28;20324;-58
2023/07/05 07:44:21;;;;;;;1.20;0.53;;;;;;;15.09;89.44;99581.47;5010308;28;20865;-57
2023/07/05 07:46:53;;;;;;;1.30;0.70;;;;;;;14.95;90.93;99590.00;5000052;28;20288;-59
2023/07/05 07:49:23;;;;;;;3.20;1.00;;;;;;;14.82;92.20;99592.31;5009894;28;20394;-57
2023/07/05 07:51:54;;;;;;;0.73;0.60;;;;;;;14.71;92.35;99596.34;5000706;28;20392;-58
2023/07/05 07:54:26;;;;;;;0.90;0.77;;;;;;;14.62;92.50;99601.06;5009982;28;21064;-58
2023/07/05 07:56:57;;;;;;;1.23;0.77;;;;;;;14.54;92.71;99605.81;5001121;28;20359;-58
2023/07/05 07:59:28;;;;;;;1.70;0.90;;;;;;;14.52;93.45;99591.84;5010659;28;20791;-58
2023/07/05 08:02:01;;;;;;;9.50;0.70;;;;;;;14.41;93.78;99591.47;4999980;28;20852;-58
2023/07/05 08:04:31;;;;;;;0.93;0.70;;;;;;;14.42;93.07;99601.03;5009412;28;20284;-59
2023/07/05 08:07:04;;;;;;;2.10;0.60;;;;;;;14.31;93.02;99598.03;4999835;28;20290;-58
2023/07/05 08:09:34;;;;;;;0.50;0.50;;;;;;;14.31;94.43;99595.41;5013000;28;20283;-58
2023/07/05 08:12:06;;;;;;;5.17;0.70;;;;;;;14.33;94.24;99596.19;5002771;28;20280;-59
2023/07/05 08:14:37;;;;;;;2.00;0.60;;;;;;;14.04;94.15;99548.34;5011207;28;20298;-58
2023/07/05 08:17:09;;;;;;;2.30;0.70;;;;;;;14.36;94.11;99590.81;5010530;28;20652;-58
2023/07/05 08:19:40;;;;;;;0.73;0.60;;;;;;;14.40;94.80;99597.63;5003638;28;20322;-58
2023/07/05 08:22:10;;;;;;;1.27;0.63;;;;;;;14.34;94.80;99582.97;5012839;28;20288;-57
2023/07/05 08:24:41;;;;;;;0.50;0.50;;;;;;;14.31;95.41;99587.53;5003225;28;20292;-57
2023/07/05 08:27:12;;;;;;;3.73;0.70;;;;;;;14.26;96.62;99590.34;5012716;28;20308;-58
2023/07/05 08:29:43;;;;;;;1.13;0.57;;;;;;;14.19;96.37;99600.25;5004103;28;20295;-58
2023/07/05 08:32:16;;;;;;;2.40;0.53;;;;;;;14.20;96.80;99591.47;5012914;28;20276;-59
2023/07/05 08:34:46;;;;;;;1.47;0.70;;;;;;;14.20;96.65;99588.84;5003169;28;20314;-58
2023/07/05 08:37:17;;;;;;;0.83;0.50;;;;;;;14.18;97.23;99593.28;5013348;28;20280;-58
2023/07/05 08:39:48;;;;;;;1.07;0.63;;;;;;;14.18;97.11;99588.03;5001212;28;20434;-58
2023/07/05 08:42:43;;;;;;;2.70;0.80;;;;;;;14.18;97.44;99588.03;5010512;28;20281;-57
2023/07/05 08:45:21;;;;;;;1.20;0.40;;;;;;;14.19;97.34;99579.22;5002701;28;20526;-58
2023/07/05 08:48:00;;;;;;;1.63;0.63;;;;;;;14.22;97.64;99589.59;5003976;28;20284;-57
2023/07/05 08:50:34;;;;;;;4.13;1.00;;;;;;;14.22;97.84;99589.59;5012617;28;21091;-58
2023/07/05 08:53:19;;;;;;;5.70;0.50;;;;;;;13.93;97.34;99540.06;5002430;28;20737;-58
2023/07/05 08:55:54;;;;;;;2.93;0.60;;;;;;;14.16;98.06;99576.72;5003351;28;20276;-58
2023/07/05 08:58:28;;;;;;;5.63;1.00;;;;;;;14.18;98.03;99582.78;5002398;28;20391;-56
2023/07/05 09:01:29;;;;;;;1.30;0.60;;;;;;;14.14;98.05;99577.72;4985577;28;20295;-58
2023/07/05 09:04:26;;;;;;;0.73;0.50;;;;;;;13.92;97.95;99572.50;5012101;28;20302;-57
2023/07/05 09:10:13;;;;;;;0.90;0.50;;;;;;;13.78;98.99;99581.81;4998263;28;19982;-56
2023/07/05 09:12:53;;;;;;;0.60;0.43;;;;;;;13.67;99.53;99586.63;4993112;28;20635;-58
2023/07/05 09:15:29;;;;;;;0.50;0.50;;;;;;;13.66;99.86;99589.31;5008647;28;20130;-58
2023/07/05 09:18:06;;;;;;;0.93;0.50;;;;;;;13.57;100.00;99590.53;4998930;28;20285;-58
2023/07/05 09:20:57;;;;;;;0.80;0.40;;;;;;;13.61;100.00;99592.13;4957330;28;20057;-59
2023/07/05 09:23:38;;;;;;;1.80;0.40;;;;;;;13.65;100.00;99598.94;5009075;28;20292;-58
2023/07/05 09:26:18;;;;;;;1.85;0.70;;;;;;;13.34;99.85;99552.91;4999220;28;20105;-58
2023/07/05 09:28:57;;;;;;;0.52;0.50;;;;;;;13.54;100.00;99588.03;4999025;28;20054;-60
2023/07/05 09:31:29;;;;;;;2.38;0.90;;;;;;;13.58;100.00;99592.25;5009226;28;20057;-59
2023/07/05 09:34:16;;;;;;;0.47;0.45;;;;;;;13.55;100.00;99592.34;4998682;28;20108;-58
2023/07/05 09:36:51;;;;;;;2.35;0.43;;;;;;;13.52;100.00;99592.47;4998478;28;20080;-58
2023/07/05 09:39:33;;;;;;;4.53;0.80;;;;;;;13.38;100.00;99580.75;5006161;28;20049;-57
2023/07/05 09:42:12;;;;;;;1.05;0.52;;;;;;;13.42;100.00;99596.38;4997937;28;20071;-59
2023/07/05 09:44:44;;;;;;;0.63;0.43;;;;;;;13.41;100.00;99584.19;4999103;28;20049;-58
2023/07/05 09:47:16;;;;;;;1.48;0.77;;;;;;;13.42;100.00;99585.88;5010000;28;20048;-57
2023/07/05 09:49:48;;;;;;;2.42;0.52;;;;;;;13.39;100.00;99578.97;5002074;28;20142;-59
2023/07/05 09:52:25;;;;;;;1.13;0.85;;;;;;;13.40;100.00;99582.44;5011375;28;20439;-58
2023/07/05 09:55:02;;;;;;;2.00;0.70;;;;;;;13.38;100.00;99578.13;5001897;28;20100;-58
2023/07/05 09:57:35;;;;;;;0.70;0.60;;;;;;;13.33;100.00;99566.97;5011541;28;20052;-58
2023/07/05 10:00:23;;;;;;;4.67;0.70;;;;;;;13.22;100.00;99568.25;5001019;28;20064;-58
2023/07/05 10:02:59;;;;;;;2.58;0.40;;;;;;;13.24;100.00;99577.75;5001664;28;20283;-58
2023/07/05 10:05:32;;;;;;;2.05;0.40;;;;;;;13.25;100.00;99578.63;5011585;28;20503;-58
2023/07/05 10:08:16;;;;;;;2.35;0.50;;;;;;;13.22;100.00;99574.34;5001533;28;20052;-57
2023/07/05 10:10:48;;;;;;;2.15;0.50;;;;;;;12.98;100.00;99538.53;5001553;28;20073;-59
2023/07/05 10:13:24;;;;;;;1.95;0.45;;;;;;;12.94;100.00;99528.19;5011380;28;20049;-58
2023/07/05 10:16:03;;;;;;;4.00;0.60;;;;;;;13.16;100.00;99574.59;5002057;28;20060;-58
2023/07/05 10:18:37;;;;;;;0.60;0.40;;;;;;;13.08;100.00;99550.41;5011103;28;20049;-58
2023/07/05 10:21:20;;;;;;;1.65;0.50;;;;;;;13.10;100.00;99561.69;5000833;28;20107;-58
2023/07/05 10:23:54;;;;;;;0.90;0.63;;;;;;;13.09;100.00;99552.97;5001579;28;20095;-58
2023/07/05 10:26:25;;;;;;;1.88;0.63;;;;;;;13.06;100.00;99554.88;5010817;28;20083;-58
2023/07/05 10:28:59;;;;;;;0.80;0.50;;;;;;;13.02;100.00;99553.25;5001482;28;20281;-57
2023/07/05 10:31:31;;;;;;;1.75;0.55;;;;;;;12.98;100.00;99554.28;5010549;28;20056;-58
2023/07/05 10:34:15;;;;;;;2.40;0.50;;;;;;;12.98;100.00;99543.78;5000551;28;20118;-58
2023/07/05 10:36:48;;;;;;;0.68;0.57;;;;;;;12.94;100.00;99546.53;5000531;28;20080;-58
2023/07/05 10:39:26;;;;;;;3.40;0.68;;;;;;;12.86;100.00;99556.47;5010661;28;20075;-57
2023/07/05 10:41:59;;;;;;;1.88;0.60;;;;;;;12.54;100.00;99507.00;4999784;28;20067;-57
2023/07/05 10:44:34;;;;;;;1.15;0.80;;;;;;;12.78;100.00;99553.28;5010781;28;20053;-58
2023/07/05 10:47:07;;;;;;;0.75;0.60;;;;;;;12.79;100.00;99549.72;5000101;28;20088;-58
2023/07/05 10:49:40;;;;;;;1.90;0.50;;;;;;;12.77;100.00;99563.81;5000790;28;20110;-58
2023/07/05 10:52:15;;;;;;;1.60;0.60;;;;;;;12.78;100.00;99563.75;5010522;28;20076;-57
2023/07/05 10:54:53;;;;;;;2.35;0.55;;;;;;;12.76;100.00;99555.09;5001017;28;20453;-57
2023/07/05 10:57:31;;;;;;;1.65;0.82;;;;;;;12.62;100.00;99541.63;5010367;28;20131;-58
2023/07/05 11:00:11;;;;;;;0.85;0.77;;;;;;;12.72;100.00;99551.72;5000434;28;20363;-58
2023/07/05 11:03:09;;;;;;;0.88;0.70;;;;;;;12.65;100.00;99557.22;5000481;28;20060;-57
2023/07/05 11:05:46;;;;;;;1.15;0.73;;;;;;;12.59;100.00;99544.38;4999797;28;20053;-58
2023/07/05 11:08:27;;;;;;;1.70;0.98;;;;;;;12.66;100.00;99553.72;5009006;28;20060;-57
2023/07/05 11:11:13;;;;;;;1.23;0.98;;;;;;;12.67;100.00;99556.28;4999952;28;20045;-59
2023/07/05 11:13:45;;;;;;;1.10;0.60;;;;;;;12.67;100.00;99555.41;5000405;28;20045;-57
2023/07/05 11:16:22;;;;;;;1.50;0.85;;;;;;;12.80;100.00;99564.53;5010261;28;20046;-57
2023/07/05 11:19:01;;;;;;;1.98;0.80;;;;;;;12.83;100.00;99567.06;5000317;28;20501;-59
2023/07/05 11:21:40;;;;;;;3.45;0.75;;;;;;;12.76;100.00;99570.81;5004327;28;20079;-58
2023/07/05 11:24:12;;;;;;;1.92;0.93;;;;;;;12.78;100.00;99569.00;5009893;28;20048;-58
2023/07/05 11:26:47;;;;;;;1.02;0.70;;;;;;;12.83;100.00;99569.69;5001024;28;20217;-58
2023/07/05 11:29:51;;;;;;;1.00;0.90;;;;;;;12.90;100.00;99573.81;5009739;28;20053;-58
2023/07/05 11:32:28;;;;;;;2.25;0.77;;;;;;;12.89;100.00;99577.31;5010040;28;20057;-58
2023/07/05 11:35:03;;;;;;;1.42;0.77;;;;;;;12.61;100.00;99521.59;5000234;28;20057;-58
2023/07/05 11:37:53;;;;;;;1.42;0.70;;;;;;;13.17;100.00;99607.75;5009879;28;20071;-58
2023/07/05 11:41:04;;;;;;;1.67;1.08;;;;;;;13.29;100.00;99607.34;5009715;28;20059;-58
2023/07/05 11:43:41;;;;;;;1.90;0.95;;;;;;;13.34;100.00;99609.78;5011618;28;20056;-58
2023/07/05 11:46:41;;;;;;;5.57;1.15;;;;;;;13.37;100.00;99607.88;5004213;28;20061;-58
2023/07/05 11:49:38;;;;;;;4.43;1.35;;;;;;;13.34;100.00;99600.13;5003729;28;20053;-58
2023/07/05 11:52:23;;;;;;;1.85;1.00;;;;;;;13.34;100.00;99600.13;5002535;28;20068;-58
2023/07/05 11:55:08;;;;;;;2.33;1.17;;;;;;;13.33;100.00;99593.19;5004112;28;20086;-58
2023/07/05 11:57:46;;;;;;;2.53;1.30;;;;;;;13.10;100.00;99564.31;5003900;28;20053;-58
2023/07/05 12:00:24;;;;;;;2.70;1.23;;;;;;;13.27;100.00;99598.66;5013292;28;20267;-57
2023/07/05 12:02:59;;;;;;;4.20;1.00;;;;;;;13.22;100.00;99597.94;5004228;28;20059;-58
2023/07/05 12:05:34;;;;;;;2.10;1.15;;;;;;;13.20;100.00;99607.63;5013934;28;20140;-57
2023/07/05 12:08:12;;;;;;;4.80;0.90;;;;;;;13.22;100.00;99600.56;4999104;28;20144;-58
2023/07/05 12:10:52;;;;;;;1.70;1.00;;;;;;;13.29;100.00;99601.25;5004086;28;20041;-57
2023/07/05 12:13:25;;;;;;;2.13;1.13;;;;;;;12.70;100.00;99502.88;5013509;28;20044;-58
2023/07/05 12:16:00;;;;;;;1.65;0.90;;;;;;;13.22;100.00;99600.56;5003809;28;20053;-58
2023/07/05 12:18:33;;;;;;;2.50;1.10;;;;;;;13.16;100.00;99587.69;5013346;28;20045;-57